sensor_id;sensor_type;location;lat;lon;timestamp;temperature;humidity
59572;DHT22;74587;45.880;11.484;2024-03-08T00:02:00;5.00;99.90
59572;DHT22;74587;45.880;11.484;2024-03-08T00:04:25;4.80;99.90
59572;DHT22;74587;45.880;11.484;2024-03-08T00:06:51;4.90;99.90
59572;DHT22;74587;45.880;11.484;2024-03-08T00:09:17;4.60;99.90
59572;DHT22;74587;45.880;11.484;2024-03-08T00:11:43;4.60;99.90
59572;DHT22;74587;45.880;11.484;2024-03-08T00:14:09;4.60;99.90
59572;DHT22;74587;45.880;11.484;2024-03-08T00:16:34;4.90;99.90
59572;DHT22;74587;45.880;11.484;2024-03-08T00:19:01;4.90;99.90
59572;DHT22;74587;45.880;11.484;2024-03-08T00:21:27;4.80;99.90
59572;DHT22;74587;45.880;11.484;2024-03-08T00:23:53;4.70;99.90
59572;DHT22;74587;45.880;11.484;2024-03-08T00:26:21;4.70;99.90
59572;DHT22;74587;45.880;11.484;2024-03-08T00:28:50;4.90;99.90
59572;DHT22;74587;45.880;11.484;2024-03-08T00:31:16;4.60;99.90
59572;DHT22;74587;45.880;11.484;2024-03-08T00:33:42;4.60;99.90
59572;DHT22;74587;45.880;11.484;2024-03-08T00:36:08;4.70;99.90
59572;DHT22;74587;45.880;11.484;2024-03-08T00:38:34;4.80;99.90
59572;DHT22;74587;45.880;11.484;2024-03-08T00:41:00;4.60;99.90
59572;DHT22;74587;45.880;11.484;2024-03-08T00:43:25;4.70;99.90
59572;DHT22;74587;45.880;11.484;2024-03-08T00:45:51;4.60;99.90
59572;DHT22;74587;45.880;11.484;2024-03-08T00:48:17;4.40;99.90
59572;DHT22;74587;45.880;11.484;2024-03-08T00:50:43;4.40;99.90
59572;DHT22;74587;45.880;11.484;2024-03-08T00:53:12;4.50;99.90
59572;DHT22;74587;45.880;11.484;2024-03-08T00:55:38;4.20;99.90
59572;DHT22;74587;45.880;11.484;2024-03-08T00:58:07;4.50;99.90
59572;DHT22;74587;45.880;11.484;2024-03-08T01:00:34;4.30;99.90
59572;DHT22;74587;45.880;11.484;2024-03-08T01:03:00;4.40;99.90
59572;DHT22;74587;45.880;11.484;2024-03-08T01:05:26;4.60;99.90
59572;DHT22;74587;45.880;11.484;2024-03-08T01:07:51;4.50;99.90
59572;DHT22;74587;45.880;11.484;2024-03-08T01:10:17;4.80;99.90
59572;DHT22;74587;45.880;11.484;2024-03-08T01:12:43;4.40;99.90
59572;DHT22;74587;45.880;11.484;2024-03-08T01:15:09;4.40;99.90
59572;DHT22;74587;45.880;11.484;2024-03-08T01:17:38;4.30;99.90
59572;DHT22;74587;45.880;11.484;2024-03-08T01:20:05;4.50;99.90
59572;DHT22;74587;45.880;11.484;2024-03-08T01:22:31;4.50;99.90
59572;DHT22;74587;45.880;11.484;2024-03-08T01:24:56;4.20;99.90
59572;DHT22;74587;45.880;11.484;2024-03-08T01:27:23;4.40;99.90
59572;DHT22;74587;45.880;11.484;2024-03-08T01:29:50;4.50;99.90
59572;DHT22;74587;45.880;11.484;2024-03-08T01:32:16;4.30;99.90
59572;DHT22;74587;45.880;11.484;2024-03-08T01:34:42;4.60;99.90
59572;DHT22;74587;45.880;11.484;2024-03-08T01:37:10;4.70;99.90
59572;DHT22;74587;45.880;11.484;2024-03-08T01:39:35;4.50;99.90
59572;DHT22;74587;45.880;11.484;2024-03-08T01:42:01;4.70;99.90
59572;DHT22;74587;45.880;11.484;2024-03-08T01:44:27;4.40;99.90
59572;DHT22;74587;45.880;11.484;2024-03-08T01:46:53;4.60;99.90
59572;DHT22;74587;45.880;11.484;2024-03-08T01:49:20;4.30;99.90
59572;DHT22;74587;45.880;11.484;2024-03-08T01:51:48;4.10;99.90
59572;DHT22;74587;45.880;11.484;2024-03-08T01:54:15;4.40;99.90
59572;DHT22;74587;45.880;11.484;2024-03-08T01:56:42;4.40;99.90
59572;DHT22;74587;45.880;11.484;2024-03-08T01:59:09;4.40;99.90
59572;DHT22;74587;45.880;11.484;2024-03-08T02:01:35;4.40;99.90
59572;DHT22;74587;45.880;11.484;2024-03-08T02:04:01;4.30;99.90
59572;DHT22;74587;45.880;11.484;2024-03-08T02:06:26;4.50;99.90
59572;DHT22;74587;45.880;11.484;2024-03-08T02:08:52;4.30;99.90
59572;DHT22;74587;45.880;11.484;2024-03-08T02:11:19;4.50;99.90
59572;DHT22;74587;45.880;11.484;2024-03-08T02:13:46;4.20;99.90
59572;DHT22;74587;45.880;11.484;2024-03-08T02:16:11;4.40;99.90
59572;DHT22;74587;45.880;11.484;2024-03-08T02:18:37;4.40;99.90
59572;DHT22;74587;45.880;11.484;2024-03-08T02:21:06;4.20;99.90
59572;DHT22;74587;45.880;11.484;2024-03-08T02:23:32;4.30;99.90
59572;DHT22;74587;45.880;11.484;2024-03-08T02:25:59;4.30;99.90
59572;DHT22;74587;45.880;11.484;2024-03-08T02:28:25;4.30;99.90
59572;DHT22;74587;45.880;11.484;2024-03-08T02:30:51;4.30;99.90
59572;DHT22;74587;45.880;11.484;2024-03-08T02:33:18;4.40;99.90
59572;DHT22;74587;45.880;11.484;2024-03-08T02:35:47;4.40;99.90
59572;DHT22;74587;45.880;11.484;2024-03-08T02:38:23;4.60;99.90
59572;DHT22;74587;45.880;11.484;2024-03-08T02:40:50;4.40;99.90
59572;DHT22;74587;45.880;11.484;2024-03-08T02:43:17;4.10;99.90
59572;DHT22;74587;45.880;11.484;2024-03-08T02:45:44;4.40;99.90
59572;DHT22;74587;45.880;11.484;2024-03-08T02:48:11;4.30;99.90
59572;DHT22;74587;45.880;11.484;2024-03-08T02:50:37;4.70;99.90
59572;DHT22;74587;45.880;11.484;2024-03-08T02:53:03;4.40;99.90
59572;DHT22;74587;45.880;11.484;2024-03-08T02:55:29;4.40;99.90
59572;DHT22;74587;45.880;11.484;2024-03-08T02:57:56;4.30;99.90
59572;DHT22;74587;45.880;11.484;2024-03-08T03:00:22;4.50;99.90
59572;DHT22;74587;45.880;11.484;2024-03-08T03:02:49;4.50;99.90
59572;DHT22;74587;45.880;11.484;2024-03-08T03:05:19;4.40;99.90
59572;DHT22;74587;45.880;11.484;2024-03-08T03:07:45;4.50;99.90
59572;DHT22;74587;45.880;11.484;2024-03-08T03:10:11;4.70;99.90
59572;DHT22;74587;45.880;11.484;2024-03-08T03:12:38;4.70;99.90
59572;DHT22;74587;45.880;11.484;2024-03-08T03:15:04;4.60;99.90
59572;DHT22;74587;45.880;11.484;2024-03-08T03:17:32;4.40;99.90
59572;DHT22;74587;45.880;11.484;2024-03-08T03:19:57;4.40;99.90
59572;DHT22;74587;45.880;11.484;2024-03-08T03:22:23;4.30;99.90
59572;DHT22;74587;45.880;11.484;2024-03-08T03:24:51;4.50;99.90
59572;DHT22;74587;45.880;11.484;2024-03-08T03:27:17;4.50;99.90
59572;DHT22;74587;45.880;11.484;2024-03-08T03:29:43;4.50;99.90
59572;DHT22;74587;45.880;11.484;2024-03-08T03:32:13;4.40;99.90
59572;DHT22;74587;45.880;11.484;2024-03-08T03:34:39;4.20;99.90
59572;DHT22;74587;45.880;11.484;2024-03-08T03:37:05;4.30;99.90
59572;DHT22;74587;45.880;11.484;2024-03-08T03:39:32;4.40;99.90
59572;DHT22;74587;45.880;11.484;2024-03-08T03:42:02;4.20;99.90
59572;DHT22;74587;45.880;11.484;2024-03-08T03:44:28;4.10;99.90
59572;DHT22;74587;45.880;11.484;2024-03-08T03:46:54;4.40;99.90
59572;DHT22;74587;45.880;11.484;2024-03-08T03:49:20;4.10;99.90
59572;DHT22;74587;45.880;11.484;2024-03-08T03:51:46;4.20;99.90
59572;DHT22;74587;45.880;11.484;2024-03-08T03:54:12;4.10;99.90
59572;DHT22;74587;45.880;11.484;2024-03-08T03:56:38;4.40;99.90
59572;DHT22;74587;45.880;11.484;2024-03-08T03:59:05;4.50;99.90
59572;DHT22;74587;45.880;11.484;2024-03-08T04:01:32;4.60;99.90
59572;DHT22;74587;45.880;11.484;2024-03-08T04:03:58;4.90;99.90
59572;DHT22;74587;45.880;11.484;2024-03-08T04:06:24;4.80;99.90
59572;DHT22;74587;45.880;11.484;2024-03-08T04:08:50;4.90;99.90
59572;DHT22;74587;45.880;11.484;2024-03-08T04:11:16;5.00;99.90
59572;DHT22;74587;45.880;11.484;2024-03-08T04:13:43;5.00;99.90
59572;DHT22;74587;45.880;11.484;2024-03-08T04:16:08;5.00;99.90
59572;DHT22;74587;45.880;11.484;2024-03-08T04:18:36;5.10;99.90
59572;DHT22;74587;45.880;11.484;2024-03-08T04:21:04;5.10;99.90
59572;DHT22;74587;45.880;11.484;2024-03-08T04:23:33;5.20;99.90
59572;DHT22;74587;45.880;11.484;2024-03-08T04:26:01;5.10;99.90
59572;DHT22;74587;45.880;11.484;2024-03-08T04:28:27;4.80;99.90
59572;DHT22;74587;45.880;11.484;2024-03-08T04:30:53;5.00;99.90
59572;DHT22;74587;45.880;11.484;2024-03-08T04:33:20;5.00;99.90
59572;DHT22;74587;45.880;11.484;2024-03-08T04:35:47;4.90;99.90
59572;DHT22;74587;45.880;11.484;2024-03-08T04:38:13;4.60;99.90
59572;DHT22;74587;45.880;11.484;2024-03-08T04:40:38;4.60;99.90
59572;DHT22;74587;45.880;11.484;2024-03-08T04:43:05;4.70;99.90
59572;DHT22;74587;45.880;11.484;2024-03-08T04:45:31;4.90;99.90
59572;DHT22;74587;45.880;11.484;2024-03-08T04:47:57;4.90;99.90
59572;DHT22;74587;45.880;11.484;2024-03-08T04:50:23;4.80;99.90
59572;DHT22;74587;45.880;11.484;2024-03-08T04:52:49;4.90;99.90
59572;DHT22;74587;45.880;11.484;2024-03-08T04:55:14;4.90;99.90
59572;DHT22;74587;45.880;11.484;2024-03-08T04:57:40;4.80;98.50
59572;DHT22;74587;45.880;11.484;2024-03-08T05:00:07;4.80;98.30
59572;DHT22;74587;45.880;11.484;2024-03-08T05:02:37;4.70;98.50
59572;DHT22;74587;45.880;11.484;2024-03-08T05:05:05;4.90;98.70
59572;DHT22;74587;45.880;11.484;2024-03-08T05:07:40;4.90;98.60
59572;DHT22;74587;45.880;11.484;2024-03-08T05:10:07;5.00;98.60
59572;DHT22;74587;45.880;11.484;2024-03-08T05:12:33;4.90;98.20
59572;DHT22;74587;45.880;11.484;2024-03-08T05:14:59;5.00;98.20
59572;DHT22;74587;45.880;11.484;2024-03-08T05:17:25;5.20;97.60
59572;DHT22;74587;45.880;11.484;2024-03-08T05:19:52;5.00;97.50
59572;DHT22;74587;45.880;11.484;2024-03-08T05:22:17;5.00;96.80
59572;DHT22;74587;45.880;11.484;2024-03-08T05:24:44;5.10;96.30
59572;DHT22;74587;45.880;11.484;2024-03-08T05:27:10;5.10;96.30
59572;DHT22;74587;45.880;11.484;2024-03-08T05:29:36;4.90;96.10
59572;DHT22;74587;45.880;11.484;2024-03-08T05:32:02;4.80;95.50
59572;DHT22;74587;45.880;11.484;2024-03-08T05:34:29;4.50;96.40
59572;DHT22;74587;45.880;11.484;2024-03-08T05:36:55;4.30;98.40
59572;DHT22;74587;45.880;11.484;2024-03-08T05:39:21;4.20;99.90
59572;DHT22;74587;45.880;11.484;2024-03-08T05:41:47;4.30;99.90
59572;DHT22;74587;45.880;11.484;2024-03-08T05:44:13;4.40;99.90
59572;DHT22;74587;45.880;11.484;2024-03-08T05:46:39;4.60;99.90
59572;DHT22;74587;45.880;11.484;2024-03-08T05:49:06;4.70;99.90
59572;DHT22;74587;45.880;11.484;2024-03-08T05:51:33;4.70;99.90
59572;DHT22;74587;45.880;11.484;2024-03-08T05:54:02;4.70;99.90
59572;DHT22;74587;45.880;11.484;2024-03-08T05:56:37;4.70;99.90
59572;DHT22;74587;45.880;11.484;2024-03-08T05:59:03;4.80;99.90
59572;DHT22;74587;45.880;11.484;2024-03-08T06:01:29;5.00;99.90
59572;DHT22;74587;45.880;11.484;2024-03-08T06:03:56;4.70;99.80
59572;DHT22;74587;45.880;11.484;2024-03-08T06:06:26;4.90;99.20
59572;DHT22;74587;45.880;11.484;2024-03-08T06:08:52;5.00;98.60
59572;DHT22;74587;45.880;11.484;2024-03-08T06:11:19;4.80;98.00
59572;DHT22;74587;45.880;11.484;2024-03-08T06:13:46;4.90;97.20
59572;DHT22;74587;45.880;11.484;2024-03-08T06:16:12;5.00;98.10
59572;DHT22;74587;45.880;11.484;2024-03-08T06:18:37;5.20;97.90
59572;DHT22;74587;45.880;11.484;2024-03-08T06:21:05;4.90;98.10
59572;DHT22;74587;45.880;11.484;2024-03-08T06:23:33;4.90;98.10
59572;DHT22;74587;45.880;11.484;2024-03-08T06:25:59;4.80;99.10
59572;DHT22;74587;45.880;11.484;2024-03-08T06:28:25;4.80;99.10
59572;DHT22;74587;45.880;11.484;2024-03-08T06:30:51;4.80;99.90
59572;DHT22;74587;45.880;11.484;2024-03-08T06:33:17;4.80;99.90
59572;DHT22;74587;45.880;11.484;2024-03-08T06:35:43;4.70;99.90
59572;DHT22;74587;45.880;11.484;2024-03-08T06:38:09;5.00;99.90
59572;DHT22;74587;45.880;11.484;2024-03-08T06:40:35;4.80;99.90
59572;DHT22;74587;45.880;11.484;2024-03-08T06:43:01;4.90;99.90
59572;DHT22;74587;45.880;11.484;2024-03-08T06:45:26;4.90;99.90
59572;DHT22;74587;45.880;11.484;2024-03-08T06:47:54;4.80;99.90
59572;DHT22;74587;45.880;11.484;2024-03-08T06:50:20;4.70;99.90
59572;DHT22;74587;45.880;11.484;2024-03-08T06:52:46;4.80;99.90
59572;DHT22;74587;45.880;11.484;2024-03-08T06:55:16;4.90;99.90
59572;DHT22;74587;45.880;11.484;2024-03-08T06:57:42;4.70;99.90
59572;DHT22;74587;45.880;11.484;2024-03-08T07:00:09;4.90;99.90
59572;DHT22;74587;45.880;11.484;2024-03-08T07:02:37;4.70;99.90
59572;DHT22;74587;45.880;11.484;2024-03-08T07:05:05;4.70;99.90
59572;DHT22;74587;45.880;11.484;2024-03-08T07:07:31;4.70;99.90
59572;DHT22;74587;45.880;11.484;2024-03-08T07:09:59;4.80;99.90
59572;DHT22;74587;45.880;11.484;2024-03-08T07:12:25;4.70;99.90
59572;DHT22;74587;45.880;11.484;2024-03-08T07:14:51;4.70;99.90
59572;DHT22;74587;45.880;11.484;2024-03-08T07:17:17;4.70;99.90
59572;DHT22;74587;45.880;11.484;2024-03-08T07:19:43;4.70;99.90
59572;DHT22;74587;45.880;11.484;2024-03-08T07:22:09;4.60;99.90
59572;DHT22;74587;45.880;11.484;2024-03-08T07:24:37;4.60;99.90
59572;DHT22;74587;45.880;11.484;2024-03-08T07:27:36;4.40;99.90
59572;DHT22;74587;45.880;11.484;2024-03-08T07:30:02;4.50;99.90
59572;DHT22;74587;45.880;11.484;2024-03-08T07:32:28;4.50;99.90
59572;DHT22;74587;45.880;11.484;2024-03-08T07:34:56;4.80;99.90
59572;DHT22;74587;45.880;11.484;2024-03-08T07:37:22;4.40;99.90
59572;DHT22;74587;45.880;11.484;2024-03-08T07:39:47;4.60;99.90
59572;DHT22;74587;45.880;11.484;2024-03-08T07:42:13;4.70;99.90
59572;DHT22;74587;45.880;11.484;2024-03-08T07:44:39;4.80;99.90
59572;DHT22;74587;45.880;11.484;2024-03-08T07:47:05;4.70;99.90
59572;DHT22;74587;45.880;11.484;2024-03-08T07:49:35;4.80;99.90
59572;DHT22;74587;45.880;11.484;2024-03-08T07:52:00;4.70;99.90
59572;DHT22;74587;45.880;11.484;2024-03-08T07:54:26;4.80;99.90
59572;DHT22;74587;45.880;11.484;2024-03-08T07:56:52;5.10;99.90
59572;DHT22;74587;45.880;11.484;2024-03-08T07:59:18;4.90;99.90
59572;DHT22;74587;45.880;11.484;2024-03-08T08:01:44;4.90;99.90
59572;DHT22;74587;45.880;11.484;2024-03-08T08:04:10;4.90;99.90
59572;DHT22;74587;45.880;11.484;2024-03-08T08:06:40;4.90;99.90
59572;DHT22;74587;45.880;11.484;2024-03-08T08:09:09;5.10;99.90
59572;DHT22;74587;45.880;11.484;2024-03-08T08:11:40;5.00;99.90
59572;DHT22;74587;45.880;11.484;2024-03-08T08:14:09;5.10;99.90
59572;DHT22;74587;45.880;11.484;2024-03-08T08:16:38;5.20;99.90
59572;DHT22;74587;45.880;11.484;2024-03-08T08:19:06;5.10;99.90
59572;DHT22;74587;45.880;11.484;2024-03-08T08:21:36;5.20;99.90
59572;DHT22;74587;45.880;11.484;2024-03-08T08:24:03;5.30;99.90
59572;DHT22;74587;45.880;11.484;2024-03-08T08:26:29;5.30;99.90
59572;DHT22;74587;45.880;11.484;2024-03-08T08:28:55;5.30;99.90
59572;DHT22;74587;45.880;11.484;2024-03-08T08:31:21;5.10;99.90
59572;DHT22;74587;45.880;11.484;2024-03-08T08:33:46;5.20;99.90
59572;DHT22;74587;45.880;11.484;2024-03-08T08:36:14;5.30;99.90
59572;DHT22;74587;45.880;11.484;2024-03-08T08:38:40;5.30;99.90
59572;DHT22;74587;45.880;11.484;2024-03-08T08:41:09;5.30;99.90
59572;DHT22;74587;45.880;11.484;2024-03-08T08:43:36;5.60;99.90
59572;DHT22;74587;45.880;11.484;2024-03-08T08:46:02;5.70;98.00
59572;DHT22;74587;45.880;11.484;2024-03-08T08:48:28;5.50;97.40
59572;DHT22;74587;45.880;11.484;2024-03-08T08:50:55;5.40;97.60
59572;DHT22;74587;45.880;11.484;2024-03-08T08:53:21;5.70;97.80
59572;DHT22;74587;45.880;11.484;2024-03-08T08:55:48;5.60;97.30
59572;DHT22;74587;45.880;11.484;2024-03-08T08:58:14;5.60;97.20
59572;DHT22;74587;45.880;11.484;2024-03-08T09:00:40;5.20;96.90
59572;DHT22;74587;45.880;11.484;2024-03-08T09:03:06;5.40;98.10
59572;DHT22;74587;45.880;11.484;2024-03-08T09:05:32;5.30;98.70
59572;DHT22;74587;45.880;11.484;2024-03-08T09:07:59;5.40;99.80
59572;DHT22;74587;45.880;11.484;2024-03-08T09:10:26;5.50;99.90
59572;DHT22;74587;45.880;11.484;2024-03-08T09:12:53;5.30;99.90
59572;DHT22;74587;45.880;11.484;2024-03-08T09:15:19;5.60;99.90
59572;DHT22;74587;45.880;11.484;2024-03-08T09:17:46;5.60;99.30
59572;DHT22;74587;45.880;11.484;2024-03-08T09:20:12;5.90;97.00
59572;DHT22;74587;45.880;11.484;2024-03-08T09:22:44;6.00;96.20
59572;DHT22;74587;45.880;11.484;2024-03-08T09:25:09;6.00;95.40
59572;DHT22;74587;45.880;11.484;2024-03-08T09:27:35;6.30;94.00
59572;DHT22;74587;45.880;11.484;2024-03-08T09:30:01;6.20;92.90
59572;DHT22;74587;45.880;11.484;2024-03-08T09:32:27;6.10;92.30
59572;DHT22;74587;45.880;11.484;2024-03-08T09:34:53;6.30;92.50
59572;DHT22;74587;45.880;11.484;2024-03-08T09:37:19;6.20;92.40
59572;DHT22;74587;45.880;11.484;2024-03-08T09:39:44;6.10;93.30
59572;DHT22;74587;45.880;11.484;2024-03-08T09:42:11;6.30;93.70
59572;DHT22;74587;45.880;11.484;2024-03-08T09:44:44;6.20;93.10
59572;DHT22;74587;45.880;11.484;2024-03-08T09:47:13;6.30;92.20
59572;DHT22;74587;45.880;11.484;2024-03-08T09:49:39;6.50;91.80
59572;DHT22;74587;45.880;11.484;2024-03-08T09:52:09;6.50;91.60
59572;DHT22;74587;45.880;11.484;2024-03-08T09:54:38;6.60;89.80
59572;DHT22;74587;45.880;11.484;2024-03-08T09:57:25;6.70;90.10
59572;DHT22;74587;45.880;11.484;2024-03-08T09:59:51;6.80;89.90
59572;DHT22;74587;45.880;11.484;2024-03-08T10:02:17;6.90;89.10
59572;DHT22;74587;45.880;11.484;2024-03-08T10:04:43;6.90;87.80
59572;DHT22;74587;45.880;11.484;2024-03-08T10:07:11;7.00;87.60
59572;DHT22;74587;45.880;11.484;2024-03-08T10:09:38;7.20;87.40
59572;DHT22;74587;45.880;11.484;2024-03-08T10:12:05;7.20;86.90
59572;DHT22;74587;45.880;11.484;2024-03-08T10:14:31;7.20;86.60
59572;DHT22;74587;45.880;11.484;2024-03-08T10:16:59;7.10;86.50
59572;DHT22;74587;45.880;11.484;2024-03-08T10:19:27;7.30;86.50
59572;DHT22;74587;45.880;11.484;2024-03-08T10:21:55;7.40;86.50
59572;DHT22;74587;45.880;11.484;2024-03-08T10:24:24;7.40;86.80
59572;DHT22;74587;45.880;11.484;2024-03-08T10:27:02;7.50;86.70
59572;DHT22;74587;45.880;11.484;2024-03-08T10:29:31;7.40;86.80
59572;DHT22;74587;45.880;11.484;2024-03-08T10:31:57;7.20;87.10
59572;DHT22;74587;45.880;11.484;2024-03-08T10:34:23;7.30;87.10
59572;DHT22;74587;45.880;11.484;2024-03-08T10:36:51;7.30;86.50
59572;DHT22;74587;45.880;11.484;2024-03-08T10:41:52;6.50;89.40
59572;DHT22;74587;45.880;11.484;2024-03-08T10:47:13;5.40;95.20
59572;DHT22;74587;45.880;11.484;2024-03-08T10:50:08;5.30;95.10
59572;DHT22;74587;45.880;11.484;2024-03-08T10:52:38;5.30;96.40
59572;DHT22;74587;45.880;11.484;2024-03-08T10:55:05;5.70;96.80
59572;DHT22;74587;45.880;11.484;2024-03-08T10:57:38;5.90;95.40
59572;DHT22;74587;45.880;11.484;2024-03-08T11:00:06;6.30;93.00
59572;DHT22;74587;45.880;11.484;2024-03-08T11:02:35;6.50;91.90
59572;DHT22;74587;45.880;11.484;2024-03-08T11:05:03;6.50;90.90
59572;DHT22;74587;45.880;11.484;2024-03-08T11:07:33;6.60;90.90
59572;DHT22;74587;45.880;11.484;2024-03-08T11:10:02;6.80;91.20
59572;DHT22;74587;45.880;11.484;2024-03-08T11:12:40;6.70;90.70
59572;DHT22;74587;45.880;11.484;2024-03-08T11:15:12;6.50;90.50
59572;DHT22;74587;45.880;11.484;2024-03-08T11:17:50;6.70;90.30
59572;DHT22;74587;45.880;11.484;2024-03-08T11:20:18;6.50;90.60
59572;DHT22;74587;45.880;11.484;2024-03-08T11:23:08;6.70;90.90
59572;DHT22;74587;45.880;11.484;2024-03-08T11:25:39;6.60;90.60
59572;DHT22;74587;45.880;11.484;2024-03-08T11:28:27;6.80;90.80
59572;DHT22;74587;45.880;11.484;2024-03-08T11:33:30;6.70;90.80
59572;DHT22;74587;45.880;11.484;2024-03-08T11:36:23;6.80;90.90
59572;DHT22;74587;45.880;11.484;2024-03-08T11:38:50;6.80;90.60
59572;DHT22;74587;45.880;11.484;2024-03-08T11:41:22;6.70;90.80
59572;DHT22;74587;45.880;11.484;2024-03-08T11:43:49;6.80;91.10
59572;DHT22;74587;45.880;11.484;2024-03-08T11:46:17;6.90;91.30
59572;DHT22;74587;45.880;11.484;2024-03-08T11:48:44;6.60;91.00
59572;DHT22;74587;45.880;11.484;2024-03-08T11:51:14;6.80;92.00
59572;DHT22;74587;45.880;11.484;2024-03-08T11:53:41;6.70;92.10
59572;DHT22;74587;45.880;11.484;2024-03-08T11:56:14;6.80;91.70
59572;DHT22;74587;45.880;11.484;2024-03-08T11:58:40;6.80;91.90
59572;DHT22;74587;45.880;11.484;2024-03-08T12:01:08;6.90;92.00
59572;DHT22;74587;45.880;11.484;2024-03-08T12:03:40;6.80;91.60
59572;DHT22;74587;45.880;11.484;2024-03-08T12:06:08;6.90;91.60
59572;DHT22;74587;45.880;11.484;2024-03-08T12:08:35;6.80;91.70
59572;DHT22;74587;45.880;11.484;2024-03-08T12:11:02;6.60;92.40
59572;DHT22;74587;45.880;11.484;2024-03-08T12:13:33;6.70;93.00
59572;DHT22;74587;45.880;11.484;2024-03-08T12:16:00;6.50;93.40
59572;DHT22;74587;45.880;11.484;2024-03-08T12:18:33;6.60;93.20
59572;DHT22;74587;45.880;11.484;2024-03-08T12:21:09;6.60;93.30
59572;DHT22;74587;45.880;11.484;2024-03-08T12:23:36;6.50;93.30
59572;DHT22;74587;45.880;11.484;2024-03-08T12:26:34;6.60;93.60
59572;DHT22;74587;45.880;11.484;2024-03-08T12:31:46;6.80;93.40
59572;DHT22;74587;45.880;11.484;2024-03-08T12:34:12;6.60;93.00
59572;DHT22;74587;45.880;11.484;2024-03-08T12:36:47;6.70;93.80
59572;DHT22;74587;45.880;11.484;2024-03-08T12:39:15;6.50;94.40
59572;DHT22;74587;45.880;11.484;2024-03-08T12:41:41;6.60;94.50
59572;DHT22;74587;45.880;11.484;2024-03-08T12:44:07;6.50;93.60
59572;DHT22;74587;45.880;11.484;2024-03-08T12:46:37;6.70;93.20
59572;DHT22;74587;45.880;11.484;2024-03-08T12:49:07;6.60;93.40
59572;DHT22;74587;45.880;11.484;2024-03-08T12:51:33;6.80;93.20
59572;DHT22;74587;45.880;11.484;2024-03-08T12:53:59;6.60;93.20
59572;DHT22;74587;45.880;11.484;2024-03-08T12:56:33;6.90;93.00
59572;DHT22;74587;45.880;11.484;2024-03-08T12:59:11;6.70;92.90
59572;DHT22;74587;45.880;11.484;2024-03-08T13:01:37;6.70;92.10
59572;DHT22;74587;45.880;11.484;2024-03-08T13:04:04;6.70;92.50
59572;DHT22;74587;45.880;11.484;2024-03-08T13:06:32;6.60;92.90
59572;DHT22;74587;45.880;11.484;2024-03-08T13:08:58;6.30;93.10
59572;DHT22;74587;45.880;11.484;2024-03-08T13:11:25;6.30;93.00
59572;DHT22;74587;45.880;11.484;2024-03-08T13:13:51;6.30;92.90
59572;DHT22;74587;45.880;11.484;2024-03-08T13:16:18;6.40;93.40
59572;DHT22;74587;45.880;11.484;2024-03-08T13:18:45;6.30;93.50
59572;DHT22;74587;45.880;11.484;2024-03-08T13:21:14;6.50;92.80
59572;DHT22;74587;45.880;11.484;2024-03-08T13:23:41;6.50;92.40
59572;DHT22;74587;45.880;11.484;2024-03-08T13:26:12;6.50;92.30
59572;DHT22;74587;45.880;11.484;2024-03-08T13:28:50;6.50;91.50
59572;DHT22;74587;45.880;11.484;2024-03-08T13:31:20;6.60;91.40
59572;DHT22;74587;45.880;11.484;2024-03-08T13:33:45;6.40;91.00
59572;DHT22;74587;45.880;11.484;2024-03-08T13:36:12;6.50;90.60
59572;DHT22;74587;45.880;11.484;2024-03-08T13:38:46;6.30;90.50
59572;DHT22;74587;45.880;11.484;2024-03-08T13:41:13;6.40;90.20
59572;DHT22;74587;45.880;11.484;2024-03-08T13:43:46;6.40;90.50
59572;DHT22;74587;45.880;11.484;2024-03-08T13:46:15;6.30;90.50
59572;DHT22;74587;45.880;11.484;2024-03-08T13:48:41;6.40;90.60
59572;DHT22;74587;45.880;11.484;2024-03-08T13:51:07;6.40;90.30
59572;DHT22;74587;45.880;11.484;2024-03-08T13:53:35;6.40;90.20
59572;DHT22;74587;45.880;11.484;2024-03-08T13:56:05;6.40;90.50
59572;DHT22;74587;45.880;11.484;2024-03-08T13:58:37;6.50;90.60
59572;DHT22;74587;45.880;11.484;2024-03-08T14:01:05;6.50;90.80
59572;DHT22;74587;45.880;11.484;2024-03-08T14:03:37;6.30;90.50
59572;DHT22;74587;45.880;11.484;2024-03-08T14:06:02;6.50;89.90
59572;DHT22;74587;45.880;11.484;2024-03-08T14:08:29;6.40;90.00
59572;DHT22;74587;45.880;11.484;2024-03-08T14:10:58;6.40;90.50
59572;DHT22;74587;45.880;11.484;2024-03-08T14:13:24;6.40;90.80
59572;DHT22;74587;45.880;11.484;2024-03-08T14:15:50;6.30;91.50
59572;DHT22;74587;45.880;11.484;2024-03-08T14:18:17;6.30;91.20
59572;DHT22;74587;45.880;11.484;2024-03-08T14:20:43;6.20;91.20
59572;DHT22;74587;45.880;11.484;2024-03-08T14:23:09;6.20;91.50
59572;DHT22;74587;45.880;11.484;2024-03-08T14:25:35;6.20;91.30
59572;DHT22;74587;45.880;11.484;2024-03-08T14:28:01;6.30;91.20
59572;DHT22;74587;45.880;11.484;2024-03-08T14:30:29;5.80;89.90
59572;DHT22;74587;45.880;11.484;2024-03-08T14:33:01;5.80;91.20
59572;DHT22;74587;45.880;11.484;2024-03-08T14:35:28;5.60;91.30
59572;DHT22;74587;45.880;11.484;2024-03-08T14:37:58;5.60;92.50
59572;DHT22;74587;45.880;11.484;2024-03-08T14:40:24;5.90;92.30
59572;DHT22;74587;45.880;11.484;2024-03-08T14:42:51;5.80;91.40
59572;DHT22;74587;45.880;11.484;2024-03-08T14:45:17;5.90;91.90
59572;DHT22;74587;45.880;11.484;2024-03-08T14:47:49;5.80;91.30
59572;DHT22;74587;45.880;11.484;2024-03-08T14:50:19;5.90;91.60
59572;DHT22;74587;45.880;11.484;2024-03-08T14:52:46;5.60;92.20
59572;DHT22;74587;45.880;11.484;2024-03-08T14:55:15;5.70;93.20
59572;DHT22;74587;45.880;11.484;2024-03-08T14:57:42;5.90;93.20
59572;DHT22;74587;45.880;11.484;2024-03-08T15:00:11;5.90;92.90
59572;DHT22;74587;45.880;11.484;2024-03-08T15:02:45;6.20;92.50
59572;DHT22;74587;45.880;11.484;2024-03-08T15:05:13;6.40;92.70
59572;DHT22;74587;45.880;11.484;2024-03-08T15:07:40;6.30;92.40
59572;DHT22;74587;45.880;11.484;2024-03-08T15:10:08;6.40;91.80
59572;DHT22;74587;45.880;11.484;2024-03-08T15:12:40;6.40;91.90
59572;DHT22;74587;45.880;11.484;2024-03-08T15:15:09;6.40;91.90
59572;DHT22;74587;45.880;11.484;2024-03-08T15:17:37;6.40;91.80
59572;DHT22;74587;45.880;11.484;2024-03-08T15:20:08;6.30;92.20
59572;DHT22;74587;45.880;11.484;2024-03-08T15:22:50;6.20;91.80
59572;DHT22;74587;45.880;11.484;2024-03-08T15:25:16;6.20;92.30
59572;DHT22;74587;45.880;11.484;2024-03-08T15:27:49;6.10;92.10
59572;DHT22;74587;45.880;11.484;2024-03-08T15:30:14;6.00;92.30
59572;DHT22;74587;45.880;11.484;2024-03-08T15:32:45;5.90;92.50
59572;DHT22;74587;45.880;11.484;2024-03-08T15:35:13;6.00;92.60
59572;DHT22;74587;45.880;11.484;2024-03-08T15:37:48;6.00;93.10
59572;DHT22;74587;45.880;11.484;2024-03-08T15:40:14;5.70;93.00
59572;DHT22;74587;45.880;11.484;2024-03-08T15:45:20;5.00;97.60
59572;DHT22;74587;45.880;11.484;2024-03-08T15:47:46;4.50;99.90